sensor_id;sensor_type;location;lat;lon;timestamp;P1;durP1;ratioP1;P2;durP2;ratioP2
1999;SDS011;1001;48.87406500;9.59633600;2023-04-24T00:01:19;1.27;;;1.00;;
1999;SDS011;1001;48.87406500;9.59633600;2023-04-24T00:03:46;2.20;;;0.97;;
1999;SDS011;1001;48.87406500;9.59633600;2023-04-24T00:06:13;1.53;;;0.87;;
1999;SDS011;1001;48.87406500;9.59633600;2023-04-24T00:08:43;2.37;;;1.20;;
1999;SDS011;1001;48.87406500;9.59633600;2023-04-24T00:11:10;1.17;;;0.90;;
1999;SDS011;1001;48.87406500;9.59633600;2023-04-24T00:13:37;1.40;;;0.90;;
1999;SDS011;1001;48.87406500;9.59633600;2023-04-24T00:16:04;1.20;;;0.90;;
1999;SDS011;1001;48.87406500;9.59633600;2023-04-24T00:18:31;5.70;;;1.20;;
1999;SDS011;1001;48.87406500;9.59633600;2023-04-24T00:20:57;2.70;;;1.17;;
1999;SDS011;1001;48.87406500;9.59633600;2023-04-24T00:23:24;0.80;;;0.70;;
1999;SDS011;1001;48.87406500;9.59633600;2023-04-24T00:25:52;2.90;;;1.10;;
1999;SDS011;1001;48.87406500;9.59633600;2023-04-24T00:28:19;2.87;;;0.93;;
1999;SDS011;1001;48.87406500;9.59633600;2023-04-24T00:30:45;1.20;;;1.00;;
1999;SDS011;1001;48.87406500;9.59633600;2023-04-24T00:33:12;1.77;;;1.27;;
1999;SDS011;1001;48.87406500;9.59633600;2023-04-24T00:35:38;1.77;;;0.83;;
1999;SDS011;1001;48.87406500;9.59633600;2023-04-24T00:38:05;1.90;;;0.80;;
1999;SDS011;1001;48.87406500;9.59633600;2023-04-24T00:40:32;1.20;;;1.10;;
1999;SDS011;1001;48.87406500;9.59633600;2023-04-24T00:43:00;2.03;;;1.27;;
1999;SDS011;1001;48.87406500;9.59633600;2023-04-24T00:45:27;1.20;;;0.80;;
1999;SDS011;1001;48.87406500;9.59633600;2023-04-24T00:47:56;1.30;;;0.87;;
1999;SDS011;1001;48.87406500;9.59633600;2023-04-24T00:50:23;3.03;;;0.90;;
1999;SDS011;1001;48.87406500;9.59633600;2023-04-24T00:52:50;2.30;;;0.77;;
1999;SDS011;1001;48.87406500;9.59633600;2023-04-24T00:55:17;1.07;;;0.80;;
1999;SDS011;1001;48.87406500;9.59633600;2023-04-24T00:57:45;1.40;;;0.70;;
1999;SDS011;1001;48.87406500;9.59633600;2023-04-24T01:00:15;5.97;;;1.10;;
1999;SDS011;1001;48.87406500;9.59633600;2023-04-24T01:02:42;1.30;;;0.80;;
1999;SDS011;1001;48.87406500;9.59633600;2023-04-24T01:05:10;2.17;;;0.63;;
1999;SDS011;1001;48.87406500;9.59633600;2023-04-24T01:07:37;1.30;;;0.90;;
1999;SDS011;1001;48.87406500;9.59633600;2023-04-24T01:10:05;4.20;;;2.03;;
1999;SDS011;1001;48.87406500;9.59633600;2023-04-24T01:12:34;2.50;;;0.83;;
1999;SDS011;1001;48.87406500;9.59633600;2023-04-24T01:15:01;3.17;;;0.97;;
1999;SDS011;1001;48.87406500;9.59633600;2023-04-24T01:17:30;1.53;;;0.80;;
1999;SDS011;1001;48.87406500;9.59633600;2023-04-24T01:19:57;2.80;;;0.73;;
1999;SDS011;1001;48.87406500;9.59633600;2023-04-24T01:22:26;1.90;;;0.73;;
1999;SDS011;1001;48.87406500;9.59633600;2023-04-24T01:24:53;1.23;;;0.80;;
1999;SDS011;1001;48.87406500;9.59633600;2023-04-24T01:27:19;1.90;;;0.80;;
1999;SDS011;1001;48.87406500;9.59633600;2023-04-24T01:29:46;1.27;;;0.80;;
1999;SDS011;1001;48.87406500;9.59633600;2023-04-24T01:32:14;2.17;;;1.00;;
1999;SDS011;1001;48.87406500;9.59633600;2023-04-24T01:34:41;2.37;;;1.20;;
1999;SDS011;1001;48.87406500;9.59633600;2023-04-24T01:37:08;2.07;;;0.90;;
1999;SDS011;1001;48.87406500;9.59633600;2023-04-24T01:39:37;1.60;;;1.10;;
1999;SDS011;1001;48.87406500;9.59633600;2023-04-24T01:42:04;1.00;;;0.70;;
1999;SDS011;1001;48.87406500;9.59633600;2023-04-24T01:44:31;1.77;;;0.70;;
1999;SDS011;1001;48.87406500;9.59633600;2023-04-24T01:46:57;2.77;;;0.80;;
1999;SDS011;1001;48.87406500;9.59633600;2023-04-24T01:49:24;1.27;;;0.90;;
1999;SDS011;1001;48.87406500;9.59633600;2023-04-24T01:51:51;2.23;;;1.10;;
1999;SDS011;1001;48.87406500;9.59633600;2023-04-24T01:54:17;2.83;;;0.83;;
1999;SDS011;1001;48.87406500;9.59633600;2023-04-24T01:56:46;1.60;;;0.80;;
1999;SDS011;1001;48.87406500;9.59633600;2023-04-24T01:59:13;2.10;;;0.80;;
1999;SDS011;1001;48.87406500;9.59633600;2023-04-24T02:01:40;2.10;;;0.83;;
1999;SDS011;1001;48.87406500;9.59633600;2023-04-24T02:04:06;1.63;;;0.60;;
1999;SDS011;1001;48.87406500;9.59633600;2023-04-24T02:06:33;1.17;;;0.70;;
1999;SDS011;1001;48.87406500;9.59633600;2023-04-24T02:09:00;0.90;;;0.83;;
1999;SDS011;1001;48.87406500;9.59633600;2023-04-24T02:11:27;1.10;;;0.67;;
1999;SDS011;1001;48.87406500;9.59633600;2023-04-24T02:13:55;2.07;;;0.80;;
1999;SDS011;1001;48.87406500;9.59633600;2023-04-24T02:16:21;1.37;;;0.77;;
1999;SDS011;1001;48.87406500;9.59633600;2023-04-24T02:18:48;1.20;;;0.50;;
1999;SDS011;1001;48.87406500;9.59633600;2023-04-24T02:21:14;1.27;;;0.63;;
1999;SDS011;1001;48.87406500;9.59633600;2023-04-24T02:23:41;3.63;;;0.90;;
1999;SDS011;1001;48.87406500;9.59633600;2023-04-24T02:26:08;1.53;;;0.83;;
1999;SDS011;1001;48.87406500;9.59633600;2023-04-24T02:28:34;1.27;;;0.70;;
1999;SDS011;1001;48.87406500;9.59633600;2023-04-24T02:31:02;1.20;;;0.80;;
1999;SDS011;1001;48.87406500;9.59633600;2023-04-24T02:33:30;2.93;;;0.70;;
1999;SDS011;1001;48.87406500;9.59633600;2023-04-24T02:35:56;1.03;;;0.70;;
1999;SDS011;1001;48.87406500;9.59633600;2023-04-24T02:38:23;3.60;;;1.00;;
1999;SDS011;1001;48.87406500;9.59633600;2023-04-24T02:40:50;1.33;;;0.80;;
1999;SDS011;1001;48.87406500;9.59633600;2023-04-24T02:43:17;2.10;;;0.90;;
1999;SDS011;1001;48.87406500;9.59633600;2023-04-24T02:45:43;1.80;;;0.90;;
1999;SDS011;1001;48.87406500;9.59633600;2023-04-24T02:48:11;3.50;;;0.80;;
1999;SDS011;1001;48.87406500;9.59633600;2023-04-24T02:50:38;0.93;;;0.70;;
1999;SDS011;1001;48.87406500;9.59633600;2023-04-24T02:53:05;3.30;;;1.30;;
1999;SDS011;1001;48.87406500;9.59633600;2023-04-24T02:55:31;0.97;;;0.87;;
1999;SDS011;1001;48.87406500;9.59633600;2023-04-24T02:57:58;3.60;;;0.80;;
1999;SDS011;1001;48.87406500;9.59633600;2023-04-24T03:00:25;1.00;;;0.87;;
1999;SDS011;1001;48.87406500;9.59633600;2023-04-24T03:02:51;1.20;;;0.80;;
1999;SDS011;1001;48.87406500;9.59633600;2023-04-24T03:05:19;1.47;;;0.90;;
1999;SDS011;1001;48.87406500;9.59633600;2023-04-24T03:07:46;1.63;;;0.80;;
1999;SDS011;1001;48.87406500;9.59633600;2023-04-24T03:10:12;2.03;;;1.20;;
1999;SDS011;1001;48.87406500;9.59633600;2023-04-24T03:12:39;1.20;;;0.77;;
1999;SDS011;1001;48.87406500;9.59633600;2023-04-24T03:15:06;2.53;;;0.97;;
1999;SDS011;1001;48.87406500;9.59633600;2023-04-24T03:17:34;3.67;;;0.87;;
1999;SDS011;1001;48.87406500;9.59633600;2023-04-24T03:20:00;1.20;;;0.63;;
1999;SDS011;1001;48.87406500;9.59633600;2023-04-24T03:22:28;2.23;;;1.10;;
1999;SDS011;1001;48.87406500;9.59633600;2023-04-24T03:24:57;2.00;;;1.00;;
1999;SDS011;1001;48.87406500;9.59633600;2023-04-24T03:27:24;1.50;;;0.70;;
1999;SDS011;1001;48.87406500;9.59633600;2023-04-24T03:29:50;2.30;;;0.90;;
1999;SDS011;1001;48.87406500;9.59633600;2023-04-24T03:32:20;2.77;;;0.80;;
1999;SDS011;1001;48.87406500;9.59633600;2023-04-24T03:34:46;0.97;;;0.67;;
1999;SDS011;1001;48.87406500;9.59633600;2023-04-24T03:37:13;2.00;;;0.87;;
1999;SDS011;1001;48.87406500;9.59633600;2023-04-24T03:39:41;1.20;;;0.80;;
1999;SDS011;1001;48.87406500;9.59633600;2023-04-24T03:42:08;1.67;;;1.00;;
1999;SDS011;1001;48.87406500;9.59633600;2023-04-24T03:44:34;2.10;;;0.90;;
1999;SDS011;1001;48.87406500;9.59633600;2023-04-24T03:47:01;1.30;;;1.20;;
1999;SDS011;1001;48.87406500;9.59633600;2023-04-24T03:49:28;1.70;;;0.80;;
1999;SDS011;1001;48.87406500;9.59633600;2023-04-24T03:51:54;1.03;;;0.83;;
1999;SDS011;1001;48.87406500;9.59633600;2023-04-24T03:54:21;1.10;;;0.70;;
1999;SDS011;1001;48.87406500;9.59633600;2023-04-24T03:56:49;1.90;;;0.80;;
1999;SDS011;1001;48.87406500;9.59633600;2023-04-24T03:59:16;1.27;;;1.03;;
1999;SDS011;1001;48.87406500;9.59633600;2023-04-24T04:01:42;3.63;;;1.00;;
1999;SDS011;1001;48.87406500;9.59633600;2023-04-24T04:04:10;1.10;;;0.70;;
1999;SDS011;1001;48.87406500;9.59633600;2023-04-24T04:06:37;2.33;;;1.30;;
1999;SDS011;1001;48.87406500;9.59633600;2023-04-24T04:09:03;1.50;;;0.80;;
1999;SDS011;1001;48.87406500;9.59633600;2023-04-24T04:11:30;1.20;;;0.87;;
1999;SDS011;1001;48.87406500;9.59633600;2023-04-24T04:13:58;1.20;;;0.80;;
1999;SDS011;1001;48.87406500;9.59633600;2023-04-24T04:16:25;1.43;;;0.90;;
1999;SDS011;1001;48.87406500;9.59633600;2023-04-24T04:18:51;2.70;;;0.97;;
1999;SDS011;1001;48.87406500;9.59633600;2023-04-24T04:21:18;1.63;;;1.23;;
1999;SDS011;1001;48.87406500;9.59633600;2023-04-24T04:23:45;1.30;;;0.90;;
1999;SDS011;1001;48.87406500;9.59633600;2023-04-24T04:26:11;2.00;;;0.93;;
1999;SDS011;1001;48.87406500;9.59633600;2023-04-24T04:28:38;5.03;;;1.00;;
1999;SDS011;1001;48.87406500;9.59633600;2023-04-24T04:31:07;1.07;;;0.70;;
1999;SDS011;1001;48.87406500;9.59633600;2023-04-24T04:33:34;1.77;;;1.63;;
1999;SDS011;1001;48.87406500;9.59633600;2023-04-24T04:36:01;3.30;;;1.20;;
1999;SDS011;1001;48.87406500;9.59633600;2023-04-24T04:38:28;2.10;;;1.23;;
1999;SDS011;1001;48.87406500;9.59633600;2023-04-24T04:40:55;1.40;;;1.00;;
1999;SDS011;1001;48.87406500;9.59633600;2023-04-24T04:43:22;2.37;;;1.10;;
1999;SDS011;1001;48.87406500;9.59633600;2023-04-24T04:45:49;2.03;;;1.13;;
1999;SDS011;1001;48.87406500;9.59633600;2023-04-24T04:48:17;3.13;;;1.37;;
1999;SDS011;1001;48.87406500;9.59633600;2023-04-24T04:50:44;2.67;;;1.13;;
1999;SDS011;1001;48.87406500;9.59633600;2023-04-24T04:53:11;1.70;;;1.00;;
1999;SDS011;1001;48.87406500;9.59633600;2023-04-24T04:55:37;2.97;;;1.20;;
1999;SDS011;1001;48.87406500;9.59633600;2023-04-24T04:58:04;2.77;;;1.43;;
1999;SDS011;1001;48.87406500;9.59633600;2023-04-24T05:00:31;1.60;;;1.00;;
1999;SDS011;1001;48.87406500;9.59633600;2023-04-24T05:03:00;2.90;;;1.30;;
1999;SDS011;1001;48.87406500;9.59633600;2023-04-24T05:05:28;1.40;;;1.27;;
1999;SDS011;1001;48.87406500;9.59633600;2023-04-24T05:07:55;2.40;;;1.27;;
1999;SDS011;1001;48.87406500;9.59633600;2023-04-24T05:10:22;2.53;;;1.60;;
1999;SDS011;1001;48.87406500;9.59633600;2023-04-24T05:12:49;1.83;;;1.20;;
1999;SDS011;1001;48.87406500;9.59633600;2023-04-24T05:15:15;3.73;;;1.27;;
1999;SDS011;1001;48.87406500;9.59633600;2023-04-24T05:17:42;2.77;;;1.20;;
1999;SDS011;1001;48.87406500;9.59633600;2023-04-24T05:20:09;1.37;;;1.27;;
1999;SDS011;1001;48.87406500;9.59633600;2023-04-24T05:22:37;4.83;;;1.33;;
1999;SDS011;1001;48.87406500;9.59633600;2023-04-24T05:25:03;1.87;;;1.70;;
1999;SDS011;1001;48.87406500;9.59633600;2023-04-24T05:27:30;5.00;;;1.50;;
1999;SDS011;1001;48.87406500;9.59633600;2023-04-24T05:29:57;1.77;;;1.30;;
1999;SDS011;1001;48.87406500;9.59633600;2023-04-24T05:32:24;1.93;;;1.37;;
1999;SDS011;1001;48.87406500;9.59633600;2023-04-24T05:34:52;1.63;;;1.30;;
1999;SDS011;1001;48.87406500;9.59633600;2023-04-24T05:37:18;1.97;;;1.50;;
1999;SDS011;1001;48.87406500;9.59633600;2023-04-24T05:39:46;2.93;;;1.60;;
1999;SDS011;1001;48.87406500;9.59633600;2023-04-24T05:42:13;3.27;;;1.53;;
1999;SDS011;1001;48.87406500;9.59633600;2023-04-24T05:44:39;1.90;;;1.50;;
1999;SDS011;1001;48.87406500;9.59633600;2023-04-24T05:47:06;2.07;;;1.47;;
1999;SDS011;1001;48.87406500;9.59633600;2023-04-24T05:49:33;2.00;;;1.60;;
1999;SDS011;1001;48.87406500;9.59633600;2023-04-24T05:51:59;5.77;;;1.60;;
1999;SDS011;1001;48.87406500;9.59633600;2023-04-24T05:54:26;2.70;;;1.90;;
1999;SDS011;1001;48.87406500;9.59633600;2023-04-24T05:56:54;2.80;;;2.00;;
1999;SDS011;1001;48.87406500;9.59633600;2023-04-24T05:59:21;3.37;;;1.93;;
1999;SDS011;1001;48.87406500;9.59633600;2023-04-24T06:01:47;2.00;;;1.70;;
1999;SDS011;1001;48.87406500;9.59633600;2023-04-24T06:04:14;2.10;;;1.90;;
1999;SDS011;1001;48.87406500;9.59633600;2023-04-24T06:06:40;8.63;;;2.03;;
1999;SDS011;1001;48.87406500;9.59633600;2023-04-24T06:09:07;2.00;;;1.77;;
1999;SDS011;1001;48.87406500;9.59633600;2023-04-24T06:11:34;2.40;;;2.20;;
1999;SDS011;1001;48.87406500;9.59633600;2023-04-24T06:14:02;2.80;;;2.33;;
1999;SDS011;1001;48.87406500;9.59633600;2023-04-24T06:16:29;2.67;;;2.20;;
1999;SDS011;1001;48.87406500;9.59633600;2023-04-24T06:18:56;3.47;;;2.00;;
1999;SDS011;1001;48.87406500;9.59633600;2023-04-24T06:21:23;3.50;;;2.47;;
1999;SDS011;1001;48.87406500;9.59633600;2023-04-24T06:23:50;6.43;;;2.47;;
1999;SDS011;1001;48.87406500;9.59633600;2023-04-24T06:26:17;3.40;;;2.37;;
1999;SDS011;1001;48.87406500;9.59633600;2023-04-24T06:28:43;2.23;;;1.90;;
1999;SDS011;1001;48.87406500;9.59633600;2023-04-24T06:31:11;4.70;;;2.40;;
1999;SDS011;1001;48.87406500;9.59633600;2023-04-24T06:33:38;5.03;;;2.80;;
1999;SDS011;1001;48.87406500;9.59633600;2023-04-24T06:36:05;3.03;;;2.33;;
1999;SDS011;1001;48.87406500;9.59633600;2023-04-24T06:38:31;3.60;;;2.43;;
1999;SDS011;1001;48.87406500;9.59633600;2023-04-24T06:40:59;4.63;;;2.80;;
1999;SDS011;1001;48.87406500;9.59633600;2023-04-24T06:43:25;2.53;;;2.33;;
1999;SDS011;1001;48.87406500;9.59633600;2023-04-24T06:45:52;2.80;;;2.50;;
1999;SDS011;1001;48.87406500;9.59633600;2023-04-24T06:48:20;2.87;;;2.60;;
1999;SDS011;1001;48.87406500;9.59633600;2023-04-24T06:50:46;4.90;;;3.43;;
1999;SDS011;1001;48.87406500;9.59633600;2023-04-24T06:53:13;4.07;;;2.80;;
1999;SDS011;1001;48.87406500;9.59633600;2023-04-24T06:55:40;3.70;;;2.70;;
1999;SDS011;1001;48.87406500;9.59633600;2023-04-24T06:58:08;4.40;;;1.83;;
1999;SDS011;1001;48.87406500;9.59633600;2023-04-24T07:00:34;4.70;;;2.83;;
1999;SDS011;1001;48.87406500;9.59633600;2023-04-24T07:03:01;3.00;;;2.00;;
1999;SDS011;1001;48.87406500;9.59633600;2023-04-24T07:05:29;2.20;;;1.70;;
1999;SDS011;1001;48.87406500;9.59633600;2023-04-24T07:07:56;3.03;;;2.10;;
1999;SDS011;1001;48.87406500;9.59633600;2023-04-24T07:10:23;1.70;;;1.60;;
1999;SDS011;1001;48.87406500;9.59633600;2023-04-24T07:12:52;2.00;;;1.67;;
1999;SDS011;1001;48.87406500;9.59633600;2023-04-24T07:15:19;4.23;;;2.20;;
1999;SDS011;1001;48.87406500;9.59633600;2023-04-24T07:17:45;3.30;;;1.93;;
1999;SDS011;1001;48.87406500;9.59633600;2023-04-24T07:20:12;3.37;;;2.10;;
1999;SDS011;1001;48.87406500;9.59633600;2023-04-24T07:22:41;2.37;;;1.50;;
1999;SDS011;1001;48.87406500;9.59633600;2023-04-24T07:25:08;2.50;;;2.30;;
1999;SDS011;1001;48.87406500;9.59633600;2023-04-24T07:27:35;2.20;;;2.00;;
1999;SDS011;1001;48.87406500;9.59633600;2023-04-24T07:30:02;3.03;;;1.93;;
1999;SDS011;1001;48.87406500;9.59633600;2023-04-24T07:32:29;2.33;;;1.90;;
1999;SDS011;1001;48.87406500;9.59633600;2023-04-24T07:34:56;1.80;;;1.67;;
1999;SDS011;1001;48.87406500;9.59633600;2023-04-24T07:37:22;2.10;;;1.90;;
1999;SDS011;1001;48.87406500;9.59633600;2023-04-24T07:39:50;1.93;;;1.73;;
1999;SDS011;1001;48.87406500;9.59633600;2023-04-24T07:42:17;3.20;;;2.07;;
1999;SDS011;1001;48.87406500;9.59633600;2023-04-24T07:44:44;1.70;;;1.40;;
1999;SDS011;1001;48.87406500;9.59633600;2023-04-24T07:47:11;1.90;;;1.50;;
1999;SDS011;1001;48.87406500;9.59633600;2023-04-24T07:49:40;2.30;;;1.93;;
1999;SDS011;1001;48.87406500;9.59633600;2023-04-24T07:52:07;1.70;;;1.40;;
1999;SDS011;1001;48.87406500;9.59633600;2023-04-24T07:54:33;4.20;;;1.57;;
1999;SDS011;1001;48.87406500;9.59633600;2023-04-24T07:57:02;4.50;;;2.13;;
1999;SDS011;1001;48.87406500;9.59633600;2023-04-24T07:59:28;3.47;;;2.73;;
1999;SDS011;1001;48.87406500;9.59633600;2023-04-24T08:01:55;2.70;;;2.00;;
1999;SDS011;1001;48.87406500;9.59633600;2023-04-24T08:04:21;3.40;;;2.17;;
1999;SDS011;1001;48.87406500;9.59633600;2023-04-24T08:06:48;1.90;;;1.80;;
1999;SDS011;1001;48.87406500;9.59633600;2023-04-24T08:09:15;3.03;;;2.47;;
1999;SDS011;1001;48.87406500;9.59633600;2023-04-24T08:11:41;2.63;;;2.20;;
1999;SDS011;1001;48.87406500;9.59633600;2023-04-24T08:14:09;3.73;;;2.27;;
1999;SDS011;1001;48.87406500;9.59633600;2023-04-24T08:16:38;2.40;;;1.80;;
1999;SDS011;1001;48.87406500;9.59633600;2023-04-24T08:19:04;2.23;;;2.03;;
1999;SDS011;1001;48.87406500;9.59633600;2023-04-24T08:21:31;3.07;;;1.50;;
1999;SDS011;1001;48.87406500;9.59633600;2023-04-24T08:23:57;2.63;;;1.70;;
1999;SDS011;1001;48.87406500;9.59633600;2023-04-24T08:26:24;1.80;;;1.40;;
1999;SDS011;1001;48.87406500;9.59633600;2023-04-24T08:28:51;1.63;;;1.53;;
1999;SDS011;1001;48.87406500;9.59633600;2023-04-24T08:31:19;1.63;;;1.43;;
1999;SDS011;1001;48.87406500;9.59633600;2023-04-24T08:33:45;2.00;;;1.80;;
1999;SDS011;1001;48.87406500;9.59633600;2023-04-24T08:36:12;2.43;;;1.87;;
1999;SDS011;1001;48.87406500;9.59633600;2023-04-24T08:38:39;3.70;;;1.57;;
1999;SDS011;1001;48.87406500;9.59633600;2023-04-24T08:41:06;2.93;;;1.87;;
1999;SDS011;1001;48.87406500;9.59633600;2023-04-24T08:43:34;1.33;;;1.10;;
1999;SDS011;1001;48.87406500;9.59633600;2023-04-24T08:46:03;4.23;;;1.90;;
1999;SDS011;1001;48.87406500;9.59633600;2023-04-24T08:48:31;1.57;;;1.30;;
1999;SDS011;1001;48.87406500;9.59633600;2023-04-24T08:50:59;1.73;;;1.53;;
1999;SDS011;1001;48.87406500;9.59633600;2023-04-24T08:53:26;2.57;;;1.80;;
1999;SDS011;1001;48.87406500;9.59633600;2023-04-24T08:55:54;1.80;;;1.67;;
1999;SDS011;1001;48.87406500;9.59633600;2023-04-24T08:58:21;2.40;;;2.07;;
1999;SDS011;1001;48.87406500;9.59633600;2023-04-24T09:00:51;1.90;;;1.80;;
1999;SDS011;1001;48.87406500;9.59633600;2023-04-24T09:03:20;3.80;;;1.43;;
1999;SDS011;1001;48.87406500;9.59633600;2023-04-24T09:05:49;1.60;;;1.50;;
1999;SDS011;1001;48.87406500;9.59633600;2023-04-24T09:08:17;2.30;;;1.63;;
1999;SDS011;1001;48.87406500;9.59633600;2023-04-24T09:10:45;4.40;;;1.57;;
1999;SDS011;1001;48.87406500;9.59633600;2023-04-24T09:13:12;2.80;;;1.50;;
1999;SDS011;1001;48.87406500;9.59633600;2023-04-24T09:15:39;3.10;;;1.80;;
1999;SDS011;1001;48.87406500;9.59633600;2023-04-24T09:18:06;1.73;;;1.47;;
1999;SDS011;1001;48.87406500;9.59633600;2023-04-24T09:20:33;1.20;;;0.77;;
1999;SDS011;1001;48.87406500;9.59633600;2023-04-24T09:23:02;1.63;;;1.10;;
1999;SDS011;1001;48.87406500;9.59633600;2023-04-24T09:25:31;2.90;;;1.33;;
1999;SDS011;1001;48.87406500;9.59633600;2023-04-24T09:28:00;1.40;;;1.00;;
1999;SDS011;1001;48.87406500;9.59633600;2023-04-24T09:30:28;1.73;;;1.10;;
1999;SDS011;1001;48.87406500;9.59633600;2023-04-24T09:33:09;2.70;;;1.00;;
1999;SDS011;1001;48.87406500;9.59633600;2023-04-24T09:35:36;3.53;;;0.80;;
1999;SDS011;1001;48.87406500;9.59633600;2023-04-24T09:38:04;1.70;;;1.07;;
1999;SDS011;1001;48.87406500;9.59633600;2023-04-24T09:40:30;1.17;;;1.07;;
1999;SDS011;1001;48.87406500;9.59633600;2023-04-24T09:43:01;1.73;;;1.40;;
1999;SDS011;1001;48.87406500;9.59633600;2023-04-24T09:45:28;1.53;;;1.10;;
1999;SDS011;1001;48.87406500;9.59633600;2023-04-24T09:48:01;1.20;;;1.07;;
1999;SDS011;1001;48.87406500;9.59633600;2023-04-24T09:50:29;0.90;;;0.80;;
1999;SDS011;1001;48.87406500;9.59633600;2023-04-24T09:52:57;2.50;;;1.17;;
1999;SDS011;1001;48.87406500;9.59633600;2023-04-24T09:55:28;1.90;;;1.30;;
1999;SDS011;1001;48.87406500;9.59633600;2023-04-24T09:57:56;1.43;;;0.93;;
1999;SDS011;1001;48.87406500;9.59633600;2023-04-24T10:00:26;2.50;;;1.73;;
1999;SDS011;1001;48.87406500;9.59633600;2023-04-24T10:02:54;2.63;;;1.10;;
1999;SDS011;1001;48.87406500;9.59633600;2023-04-24T10:05:26;3.33;;;1.10;;
1999;SDS011;1001;48.87406500;9.59633600;2023-04-24T10:07:57;1.40;;;1.00;;
1999;SDS011;1001;48.87406500;9.59633600;2023-04-24T10:10:26;1.63;;;1.00;;
1999;SDS011;1001;48.87406500;9.59633600;2023-04-24T10:12:54;2.73;;;1.50;;
1999;SDS011;1001;48.87406500;9.59633600;2023-04-24T10:15:21;1.30;;;1.10;;
1999;SDS011;1001;48.87406500;9.59633600;2023-04-24T10:17:48;2.50;;;1.50;;
1999;SDS011;1001;48.87406500;9.59633600;2023-04-24T10:20:18;2.17;;;1.40;;
1999;SDS011;1001;48.87406500;9.59633600;2023-04-24T10:22:46;1.50;;;1.13;;
1999;SDS011;1001;48.87406500;9.59633600;2023-04-24T10:25:16;1.53;;;1.43;;
1999;SDS011;1001;48.87406500;9.59633600;2023-04-24T10:27:44;2.17;;;1.23;;
1999;SDS011;1001;48.87406500;9.59633600;2023-04-24T10:30:14;3.70;;;1.43;;
1999;SDS011;1001;48.87406500;9.59633600;2023-04-24T10:32:42;1.47;;;1.33;;
1999;SDS011;1001;48.87406500;9.59633600;2023-04-24T10:35:09;2.00;;;1.03;;
1999;SDS011;1001;48.87406500;9.59633600;2023-04-24T10:37:39;2.03;;;1.10;;
1999;SDS011;1001;48.87406500;9.59633600;2023-04-24T10:40:09;2.30;;;1.27;;
1999;SDS011;1001;48.87406500;9.59633600;2023-04-24T10:42:39;3.63;;;1.30;;
1999;SDS011;1001;48.87406500;9.59633600;2023-04-24T10:45:16;1.53;;;1.03;;
1999;SDS011;1001;48.87406500;9.59633600;2023-04-24T10:50:28;1.73;;;1.30;;
1999;SDS011;1001;48.87406500;9.59633600;2023-04-24T10:53:04;1.30;;;1.13;;
1999;SDS011;1001;48.87406500;9.59633600;2023-04-24T10:55:42;2.00;;;1.03;;
1999;SDS011;1001;48.87406500;9.59633600;2023-04-24T10:58:10;1.30;;;1.20;;
1999;SDS011;1001;48.87406500;9.59633600;2023-04-24T11:00:38;2.10;;;1.13;;
1999;SDS011;1001;48.87406500;9.59633600;2023-04-24T11:03:06;1.60;;;1.17;;
1999;SDS011;1001;48.87406500;9.59633600;2023-04-24T11:05:49;3.40;;;1.63;;
1999;SDS011;1001;48.87406500;9.59633600;2023-04-24T11:08:23;3.87;;;1.37;;
1999;SDS011;1001;48.87406500;9.59633600;2023-04-24T11:10:59;2.53;;;1.47;;
1999;SDS011;1001;48.87406500;9.59633600;2023-04-24T11:14:00;2.53;;;1.53;;
1999;SDS011;1001;48.87406500;9.59633600;2023-04-24T11:16:33;2.60;;;1.60;;
1999;SDS011;1001;48.87406500;9.59633600;2023-04-24T11:19:04;2.23;;;1.60;;
1999;SDS011;1001;48.87406500;9.59633600;2023-04-24T11:21:32;1.57;;;1.40;;
1999;SDS011;1001;48.87406500;9.59633600;2023-04-24T11:27:06;2.60;;;1.57;;
1999;SDS011;1001;48.87406500;9.59633600;2023-04-24T11:29:44;2.47;;;1.80;;
1999;SDS011;1001;48.87406500;9.59633600;2023-04-24T11:32:18;1.73;;;1.33;;
1999;SDS011;1001;48.87406500;9.59633600;2023-04-24T11:34:49;6.73;;;1.57;;
1999;SDS011;1001;48.87406500;9.59633600;2023-04-24T11:37:17;3.10;;;1.63;;
1999;SDS011;1001;48.87406500;9.59633600;2023-04-24T11:39:43;2.40;;;1.60;;
1999;SDS011;1001;48.87406500;9.59633600;2023-04-24T11:42:10;1.67;;;1.30;;
1999;SDS011;1001;48.87406500;9.59633600;2023-04-24T11:44:40;2.50;;;1.43;;
1999;SDS011;1001;48.87406500;9.59633600;2023-04-24T11:47:07;2.13;;;1.43;;
1999;SDS011;1001;48.87406500;9.59633600;2023-04-24T11:49:37;1.83;;;1.27;;
1999;SDS011;1001;48.87406500;9.59633600;2023-04-24T11:52:04;2.13;;;1.67;;
1999;SDS011;1001;48.87406500;9.59633600;2023-04-24T11:54:31;1.90;;;1.50;;
1999;SDS011;1001;48.87406500;9.59633600;2023-04-24T11:56:58;1.43;;;1.33;;
1999;SDS011;1001;48.87406500;9.59633600;2023-04-24T11:59:24;1.20;;;1.10;;
1999;SDS011;1001;48.87406500;9.59633600;2023-04-24T12:01:51;2.50;;;2.27;;
1999;SDS011;1001;48.87406500;9.59633600;2023-04-24T12:04:18;2.60;;;1.53;;
1999;SDS011;1001;48.87406500;9.59633600;2023-04-24T12:07:02;2.40;;;1.80;;
1999;SDS011;1001;48.87406500;9.59633600;2023-04-24T12:09:39;1.97;;;1.77;;
1999;SDS011;1001;48.87406500;9.59633600;2023-04-24T12:12:07;3.17;;;1.80;;
1999;SDS011;1001;48.87406500;9.59633600;2023-04-24T12:14:41;2.30;;;1.50;;
1999;SDS011;1001;48.87406500;9.59633600;2023-04-24T12:17:09;2.57;;;1.70;;
1999;SDS011;1001;48.87406500;9.59633600;2023-04-24T12:19:36;2.50;;;1.50;;
1999;SDS011;1001;48.87406500;9.59633600;2023-04-24T12:22:04;4.00;;;1.67;;
1999;SDS011;1001;48.87406500;9.59633600;2023-04-24T12:24:32;1.50;;;1.23;;
1999;SDS011;1001;48.87406500;9.59633600;2023-04-24T12:26:58;2.80;;;1.80;;
1999;SDS011;1001;48.87406500;9.59633600;2023-04-24T12:29:26;2.27;;;1.93;;
1999;SDS011;1001;48.87406500;9.59633600;2023-04-24T12:31:53;2.57;;;1.63;;
1999;SDS011;1001;48.87406500;9.59633600;2023-04-24T12:34:20;2.67;;;1.60;;
1999;SDS011;1001;48.87406500;9.59633600;2023-04-24T12:36:48;3.67;;;1.17;;
1999;SDS011;1001;48.87406500;9.59633600;2023-04-24T12:39:16;2.90;;;1.43;;
1999;SDS011;1001;48.87406500;9.59633600;2023-04-24T12:41:50;1.30;;;1.20;;
1999;SDS011;1001;48.87406500;9.59633600;2023-04-24T12:44:28;1.90;;;1.67;;
1999;SDS011;1001;48.87406500;9.59633600;2023-04-24T12:46:55;1.67;;;1.43;;
1999;SDS011;1001;48.87406500;9.59633600;2023-04-24T12:49:21;1.80;;;1.47;;
1999;SDS011;1001;48.87406500;9.59633600;2023-04-24T12:51:48;2.03;;;1.80;;
1999;SDS011;1001;48.87406500;9.59633600;2023-04-24T12:54:15;2.07;;;1.60;;
1999;SDS011;1001;48.87406500;9.59633600;2023-04-24T12:56:43;1.27;;;1.17;;
1999;SDS011;1001;48.87406500;9.59633600;2023-04-24T12:59:09;1.60;;;1.27;;
1999;SDS011;1001;48.87406500;9.59633600;2023-04-24T13:01:36;2.90;;;1.70;;
1999;SDS011;1001;48.87406500;9.59633600;2023-04-24T13:04:02;1.83;;;1.57;;
1999;SDS011;1001;48.87406500;9.59633600;2023-04-24T13:06:29;1.97;;;1.77;;
1999;SDS011;1001;48.87406500;9.59633600;2023-04-24T13:08:56;2.30;;;2.07;;
1999;SDS011;1001;48.87406500;9.59633600;2023-04-24T13:11:24;1.60;;;1.50;;
1999;SDS011;1001;48.87406500;9.59633600;2023-04-24T13:13:51;1.80;;;1.70;;
1999;SDS011;1001;48.87406500;9.59633600;2023-04-24T13:16:17;1.50;;;1.40;;
1999;SDS011;1001;48.87406500;9.59633600;2023-04-24T13:18:44;2.20;;;1.60;;
1999;SDS011;1001;48.87406500;9.59633600;2023-04-24T13:21:10;2.20;;;2.00;;